createdAt,value
2022-08-25T00:00:22.711Z,98399.00
2022-08-25T00:02:56.003Z,98398.00
2022-08-25T00:05:29.512Z,98404.00
2022-08-25T00:08:04.370Z,98397.00
2022-08-25T00:10:36.748Z,98405.00
2022-08-25T00:13:05.238Z,98393.00
2022-08-25T00:15:32.883Z,98398.00
2022-08-25T00:18:01.240Z,98395.00
2022-08-25T00:20:32.908Z,98396.00
2022-08-25T00:23:02.650Z,98404.00
2022-08-25T00:25:29.977Z,98399.00
2022-08-25T00:27:58.948Z,98402.00
2022-08-25T00:30:26.320Z,98410.00
2022-08-25T00:32:57.139Z,98411.00
2022-08-25T00:35:27.839Z,98410.00
2022-08-25T00:37:55.844Z,98417.00
2022-08-25T00:40:27.258Z,98418.00
2022-08-25T00:42:56.153Z,98418.00
2022-08-25T00:45:24.649Z,98412.00
2022-08-25T00:47:52.144Z,98407.00
2022-08-25T00:50:21.468Z,98401.00
2022-08-25T00:52:56.087Z,98397.00
2022-08-25T00:55:39.931Z,98403.00
2022-08-25T00:58:26.595Z,98402.00
2022-08-25T01:00:57.849Z,98408.00
2022-08-25T01:03:32.903Z,98420.00
2022-08-25T01:06:05.193Z,98417.00
2022-08-25T01:08:33.656Z,98413.00
2022-08-25T01:11:09.061Z,98414.00
2022-08-25T01:13:52.727Z,98397.00
2022-08-25T01:16:20.797Z,98398.00
2022-08-25T01:18:57.903Z,98404.00
2022-08-25T01:21:30.755Z,98405.00
2022-08-25T01:24:01.220Z,98396.00
2022-08-25T01:26:35.192Z,98396.00
2022-08-25T01:29:21.595Z,98397.00
2022-08-25T01:32:02.781Z,98407.00
2022-08-25T01:34:36.857Z,98401.00
2022-08-25T01:37:05.549Z,98402.00
2022-08-25T01:39:36.638Z,98408.00
2022-08-25T01:42:49.749Z,98407.00
2022-08-25T01:45:17.061Z,98411.00
2022-08-25T01:47:44.380Z,98415.00
2022-08-25T01:50:13.468Z,98420.00
2022-08-25T01:53:33.431Z,98414.00
2022-08-25T01:56:13.948Z,98422.00
2022-08-25T01:58:47.844Z,98429.00
2022-08-25T02:01:25.249Z,98427.00
2022-08-25T02:03:56.817Z,98438.00
2022-08-25T02:06:33.389Z,98440.00
2022-08-25T02:09:10.956Z,98438.00
2022-08-25T02:11:45.171Z,98434.00
2022-08-25T02:14:16.979Z,98428.00
2022-08-25T02:16:50.882Z,98411.00
2022-08-25T02:19:21.010Z,98426.00
2022-08-25T02:21:48.659Z,98425.00
2022-08-25T02:24:16.338Z,98415.00
2022-08-25T02:26:45.233Z,98414.00
2022-08-25T02:29:12.766Z,98403.00
2022-08-25T02:31:40.969Z,98409.00
2022-08-25T02:34:11.647Z,98400.00
2022-08-25T02:36:40.130Z,98405.00
2022-08-25T02:39:10.431Z,98406.00
2022-08-25T02:41:41.057Z,98401.00
2022-08-25T02:44:09.928Z,98412.00
2022-08-25T02:46:38.475Z,98409.00
2022-08-25T02:49:08.427Z,98412.00
2022-08-25T02:51:36.121Z,98409.00
2022-08-25T02:54:06.000Z,98411.00
2022-08-25T02:56:34.155Z,98421.00
2022-08-25T02:59:02.866Z,98427.00
2022-08-25T03:01:32.722Z,98439.00
2022-08-25T03:04:01.978Z,98425.00
2022-08-25T03:06:30.991Z,98428.00
2022-08-25T03:08:58.372Z,98429.00
2022-08-25T03:11:26.671Z,98417.00
2022-08-25T03:13:54.590Z,98426.00
2022-08-25T03:16:22.834Z,98420.00
2022-08-25T03:18:56.281Z,98410.00
2022-08-25T03:21:25.074Z,98405.00
2022-08-25T03:23:52.393Z,98411.00
2022-08-25T03:26:38.240Z,98411.00
2022-08-25T03:29:06.558Z,98408.00
2022-08-25T03:31:36.629Z,98411.00
2022-08-25T03:34:04.076Z,98410.00
2022-08-25T03:36:31.803Z,98407.00
2022-08-25T03:39:00.393Z,98406.00
2022-08-25T03:41:33.522Z,98396.00
2022-08-25T03:44:04.136Z,98401.00
2022-08-25T03:46:47.117Z,98396.00
2022-08-25T03:49:23.493Z,98401.00
2022-08-25T03:51:54.724Z,98409.00
2022-08-25T03:54:25.923Z,98402.00
2022-08-25T03:56:54.213Z,98409.00
2022-08-25T03:59:21.699Z,98412.00
2022-08-25T04:01:54.444Z,98412.00
2022-08-25T04:04:22.846Z,98397.00
2022-08-25T04:06:50.295Z,98400.00
2022-08-25T04:09:17.608Z,98397.00
2022-08-25T04:11:44.943Z,98394.00
2022-08-25T04:14:15.824Z,98400.00
2022-08-25T04:16:45.305Z,98399.00
2022-08-25T04:19:13.003Z,98393.00
2022-08-25T04:21:42.242Z,98391.00
2022-08-25T04:24:13.000Z,98397.00
2022-08-25T04:26:50.376Z,98406.00
2022-08-25T04:29:23.935Z,98400.00
2022-08-25T04:31:54.041Z,98388.00
2022-08-25T04:34:30.689Z,98389.00
2022-08-25T04:37:06.261Z,98394.00
2022-08-25T04:39:34.187Z,98386.00
2022-08-25T04:42:02.368Z,98398.00
2022-08-25T04:44:31.834Z,98399.00
2022-08-25T04:47:00.681Z,98397.00
2022-08-25T04:49:28.739Z,98392.00
2022-08-25T04:51:57.410Z,98386.00
2022-08-25T04:54:25.213Z,98380.00
2022-08-25T04:56:54.544Z,98382.00
2022-08-25T04:59:30.231Z,98371.00
2022-08-25T05:02:02.877Z,98369.00
2022-08-25T05:04:32.985Z,98368.00
2022-08-25T05:07:01.249Z,98360.00
2022-08-25T05:09:29.198Z,98362.00
2022-08-25T05:12:02.944Z,98367.00
2022-08-25T05:14:31.641Z,98373.00
2022-08-25T05:16:59.319Z,98378.00
2022-08-25T05:19:27.573Z,98373.00
2022-08-25T05:21:55.069Z,98372.00
2022-08-25T05:24:25.765Z,98378.00
2022-08-25T05:26:53.078Z,98379.00
2022-08-25T05:29:20.512Z,98387.00
2022-08-25T05:31:50.612Z,98382.00
2022-08-25T05:34:19.467Z,98375.00
2022-08-25T05:36:48.923Z,98366.00
2022-08-25T05:39:16.385Z,98371.00
2022-08-25T05:41:44.075Z,98369.00
2022-08-25T05:44:12.712Z,98366.00
2022-08-25T05:46:40.093Z,98360.00
2022-08-25T05:49:07.571Z,98360.00
2022-08-25T05:51:34.875Z,98354.00
2022-08-25T05:54:03.479Z,98347.00
2022-08-25T05:56:31.357Z,98354.00
2022-08-25T05:58:58.794Z,98360.00
2022-08-25T06:01:49.050Z,98361.00
2022-08-25T06:04:20.890Z,98360.00
2022-08-25T06:06:48.770Z,98353.00
2022-08-25T06:09:18.728Z,98349.00
2022-08-25T06:11:49.693Z,98347.00
2022-08-25T06:14:20.725Z,98346.00
2022-08-25T06:16:51.445Z,98346.00
2022-08-25T06:19:19.171Z,98350.00
2022-08-25T06:21:46.484Z,98351.00
2022-08-25T06:24:15.674Z,98346.00
2022-08-25T06:26:44.246Z,98345.00
2022-08-25T06:29:14.131Z,98347.00
2022-08-25T06:31:43.542Z,98353.00
2022-08-25T06:34:13.592Z,98352.00
2022-08-25T06:36:41.191Z,98358.00
2022-08-25T06:39:10.653Z,98361.00
2022-08-25T06:41:39.051Z,98344.00
2022-08-25T06:44:07.024Z,98338.00
2022-08-25T06:46:36.463Z,98350.00
2022-08-25T06:49:07.112Z,98353.00
2022-08-25T06:51:38.316Z,98354.00
2022-08-25T06:54:10.013Z,98348.00
2022-08-25T06:56:41.021Z,98341.00
2022-08-25T06:59:10.598Z,98347.00
2022-08-25T07:01:39.512Z,98348.00
2022-08-25T07:04:12.903Z,98343.00
2022-08-25T07:06:43.772Z,98341.00
2022-08-25T07:09:13.349Z,98344.00
2022-08-25T07:11:43.474Z,98344.00
2022-08-25T07:14:16.280Z,98344.00
2022-08-25T07:16:48.763Z,98348.00
2022-08-25T07:19:20.877Z,98357.00
2022-08-25T07:21:54.121Z,98351.00
2022-08-25T07:24:23.085Z,98344.00
2022-08-25T07:26:51.443Z,98343.00
2022-08-25T07:29:32.227Z,98348.00
2022-08-25T07:32:03.653Z,98353.00
2022-08-25T07:34:52.544Z,98343.00
2022-08-25T07:40:29.928Z,98344.00
2022-08-25T07:43:03.201Z,98348.00
2022-08-25T07:45:37.838Z,98349.00
2022-08-25T07:48:19.957Z,98356.00
2022-08-25T07:50:49.452Z,98348.00
2022-08-25T07:53:18.133Z,98347.00
2022-08-25T07:55:45.587Z,98348.00
2022-08-25T07:58:15.337Z,98349.00
2022-08-25T08:00:42.810Z,98357.00
2022-08-25T08:03:19.775Z,98350.00
2022-08-25T08:05:58.303Z,98351.00
2022-08-25T08:08:25.613Z,98352.00
2022-08-25T08:11:04.334Z,98351.00
2022-08-25T08:13:36.766Z,98356.00
2022-08-25T08:16:15.542Z,98353.00
2022-08-25T08:18:45.283Z,98354.00
2022-08-25T08:21:26.646Z,98351.00
2022-08-25T08:23:58.954Z,98354.00
2022-08-25T08:26:48.119Z,98360.00
2022-08-25T08:29:16.482Z,98360.00
2022-08-25T08:31:48.594Z,98353.00
2022-08-25T08:34:17.295Z,98360.00
2022-08-25T08:36:45.358Z,98360.00
2022-08-25T08:39:12.916Z,98350.00
2022-08-25T08:42:39.742Z,98348.00
2022-08-25T08:45:40.391Z,98341.00
2022-08-25T08:49:07.009Z,98348.00
2022-08-25T08:51:54.372Z,98343.00
2022-08-25T08:54:26.519Z,98339.00
2022-08-25T08:57:25.563Z,98345.00
2022-08-25T09:00:04.836Z,98344.00
2022-08-25T09:03:09.900Z,98350.00
2022-08-25T09:05:53.191Z,98348.00
2022-08-25T09:08:20.751Z,98344.00
2022-08-25T09:11:26.988Z,98344.00
2022-08-25T09:14:59.496Z,98345.00
2022-08-25T09:18:12.110Z,98343.00
2022-08-25T09:21:13.017Z,98347.00
2022-08-25T09:24:06.008Z,98343.00
2022-08-25T09:27:43.754Z,98340.00
2022-08-25T09:30:49.845Z,98334.00
2022-08-25T09:33:41.821Z,98328.00
2022-08-25T09:36:20.872Z,98335.00
2022-08-25T09:38:58.604Z,98338.00
2022-08-25T09:42:12.058Z,98329.00
2022-08-25T09:44:55.343Z,98330.00
2022-08-25T09:47:45.914Z,98334.00
2022-08-25T09:50:41.791Z,98329.00
2022-08-25T09:53:51.346Z,98324.00
2022-08-25T09:57:44.654Z,98323.00
2022-08-25T10:01:25.146Z,98323.00
2022-08-25T10:04:20.296Z,98317.00
2022-08-25T10:07:27.660Z,98319.00
2022-08-25T10:10:24.715Z,98307.00
2022-08-25T10:12:52.376Z,98311.00
2022-08-25T10:15:35.981Z,98310.00
2022-08-25T10:18:28.398Z,98311.00
2022-08-25T10:21:19.004Z,98316.00
2022-08-25T10:23:55.945Z,98302.00
2022-08-25T10:27:25.947Z,98291.00
2022-08-25T10:30:43.860Z,98292.00
2022-08-25T10:33:51.446Z,98293.00
2022-08-25T10:37:20.727Z,98297.00
2022-08-25T10:40:28.777Z,98287.00
2022-08-25T10:43:54.821Z,98285.00
2022-08-25T10:46:57.554Z,98281.00
2022-08-25T10:49:45.703Z,98274.00
2022-08-25T10:53:09.884Z,98272.00
2022-08-25T10:55:58.713Z,98263.00
2022-08-25T10:58:45.488Z,98270.00
2022-08-25T11:01:45.162Z,98271.00
2022-08-25T11:04:40.886Z,98268.00
2022-08-25T11:07:35.871Z,98265.00
2022-08-25T11:10:20.243Z,98254.00
2022-08-25T11:13:01.856Z,98263.00
2022-08-25T11:16:15.416Z,98253.00
2022-08-25T11:18:58.961Z,98252.00
2022-08-25T11:22:00.810Z,98249.00
2022-08-25T11:24:46.292Z,98244.00
2022-08-25T11:27:24.515Z,98239.00
2022-08-25T11:30:18.853Z,98246.00
2022-08-25T11:32:53.296Z,98237.00
2022-08-25T11:35:49.021Z,98234.00
2022-08-25T11:39:23.928Z,98231.00
2022-08-25T11:42:35.041Z,98224.00
2022-08-25T11:46:33.851Z,98230.00
2022-08-25T11:49:51.732Z,98215.00
2022-08-25T11:52:34.820Z,98219.00
2022-08-25T11:55:37.341Z,98212.00
2022-08-25T11:58:41.075Z,98224.00
2022-08-25T12:02:00.953Z,98214.00
2022-08-25T12:04:44.800Z,98209.00
2022-08-25T12:07:24.467Z,98213.00
2022-08-25T12:09:51.650Z,98208.00
2022-08-25T12:12:42.517Z,98204.00
2022-08-25T12:15:43.158Z,98204.00
2022-08-25T12:18:22.915Z,98205.00
2022-08-25T12:20:58.878Z,98202.00
2022-08-25T12:24:05.702Z,98198.00
2022-08-25T12:26:59.874Z,98209.00
2022-08-25T12:30:20.768Z,98205.00
2022-08-25T12:33:14.082Z,98196.00
2022-08-25T12:36:00.169Z,98191.00
2022-08-25T12:38:52.242Z,98187.00
2022-08-25T12:41:27.493Z,98193.00
2022-08-25T12:44:45.079Z,98190.00
2022-08-25T12:47:19.992Z,98191.00
2022-08-25T12:49:51.676Z,98192.00
2022-08-25T12:52:28.031Z,98190.00
2022-08-25T12:55:06.065Z,98183.00
2022-08-25T12:57:50.645Z,98195.00
2022-08-25T13:00:37.781Z,98182.00
2022-08-25T13:03:58.419Z,98190.00
2022-08-25T13:07:05.620Z,98187.00
2022-08-25T13:10:46.232Z,98179.00
2022-08-25T13:13:49.075Z,98169.00
2022-08-25T13:16:28.383Z,98183.00
2022-08-25T13:18:59.598Z,98179.00
2022-08-25T13:21:43.918Z,98176.00
2022-08-25T13:24:40.777Z,98172.00
2022-08-25T13:27:26.555Z,98165.00
2022-08-25T13:29:59.885Z,98156.00
2022-08-25T13:32:38.843Z,98156.00
2022-08-25T13:35:32.775Z,98150.00
2022-08-25T13:38:19.483Z,98157.00
2022-08-25T13:40:46.990Z,98145.00
2022-08-25T13:43:15.293Z,98145.00
2022-08-25T13:45:50.356Z,98146.00
2022-08-25T13:48:49.407Z,98143.00
2022-08-25T13:51:31.268Z,98147.00
2022-08-25T13:54:23.803Z,98147.00
2022-08-25T13:56:52.530Z,98141.00
2022-08-25T13:59:30.538Z,98140.00
2022-08-25T14:01:59.776Z,98141.00
2022-08-25T14:04:39.813Z,98134.00
2022-08-25T14:07:22.689Z,98141.00
2022-08-25T14:10:05.056Z,98144.00
2022-08-25T14:12:48.041Z,98130.00
2022-08-25T14:15:23.375Z,98122.00
2022-08-25T14:18:30.083Z,98129.00
2022-08-25T14:21:11.445Z,98123.00
2022-08-25T14:23:40.965Z,98128.00
2022-08-25T14:26:08.323Z,98126.00
2022-08-25T14:28:35.693Z,98130.00
2022-08-25T14:31:28.168Z,98128.00
2022-08-25T14:34:03.725Z,98124.00
2022-08-25T14:36:34.181Z,98113.00
2022-08-25T14:39:08.863Z,98121.00
2022-08-25T14:41:47.463Z,98110.00
2022-08-25T14:44:21.064Z,98104.00
2022-08-25T14:46:56.708Z,98111.00
2022-08-25T14:49:33.711Z,98106.00
2022-08-25T14:52:30.462Z,98106.00
2022-08-25T14:54:57.930Z,98113.00
2022-08-25T14:57:27.085Z,98111.00
2022-08-25T14:59:54.847Z,98100.00
2022-08-25T15:02:29.573Z,98108.00
2022-08-25T15:05:05.886Z,98102.00
2022-08-25T15:07:53.468Z,98107.00
2022-08-25T15:10:24.034Z,98098.00
2022-08-25T15:12:54.731Z,98107.00
2022-08-25T15:15:26.316Z,98103.00
2022-08-25T15:17:55.101Z,98103.00
2022-08-25T15:20:25.537Z,98100.00
2022-08-25T15:22:54.525Z,98096.00
2022-08-25T15:25:22.825Z,98093.00
2022-08-25T15:27:51.838Z,98089.00
2022-08-25T15:30:19.533Z,98088.00
2022-08-25T15:32:48.714Z,98088.00
2022-08-25T15:35:22.352Z,98090.00
2022-08-25T15:38:07.632Z,98088.00
2022-08-25T15:40:40.336Z,98086.00
2022-08-25T15:43:19.928Z,98090.00
2022-08-25T15:45:50.913Z,98092.00
2022-08-25T15:48:18.355Z,98083.00
2022-08-25T15:50:47.297Z,98084.00
2022-08-25T15:53:14.817Z,98089.00
2022-08-25T15:55:42.147Z,98084.00
2022-08-25T15:58:11.524Z,98082.00
2022-08-25T16:00:39.153Z,98084.00
2022-08-25T16:03:07.144Z,98085.00
2022-08-25T16:05:39.462Z,98079.00
2022-08-25T16:08:19.214Z,98078.00
2022-08-25T16:10:47.452Z,98079.00
2022-08-25T16:13:14.925Z,98079.00
2022-08-25T16:15:53.174Z,98084.00
2022-08-25T16:18:23.871Z,98083.00
2022-08-25T16:20:52.703Z,98081.00
2022-08-25T16:23:22.498Z,98086.00
2022-08-25T16:25:50.244Z,98086.00
2022-08-25T16:28:20.618Z,98083.00
2022-08-25T16:30:53.314Z,98076.00
2022-08-25T16:33:21.220Z,98082.00
2022-08-25T16:35:49.207Z,98076.00
2022-08-25T16:38:16.837Z,98080.00
2022-08-25T16:40:46.279Z,98073.00
2022-08-25T16:43:13.612Z,98070.00
2022-08-25T16:45:40.924Z,98071.00
2022-08-25T16:48:08.558Z,98075.00
2022-08-25T16:50:38.498Z,98073.00
2022-08-25T16:53:25.476Z,98066.00
2022-08-25T16:56:05.769Z,98064.00
2022-08-25T16:58:35.983Z,98070.00
2022-08-25T17:01:15.307Z,98065.00
2022-08-25T17:03:43.894Z,98069.00
2022-08-25T17:06:14.110Z,98067.00
2022-08-25T17:08:42.986Z,98067.00
2022-08-25T17:11:32.884Z,98070.00
2022-08-25T17:14:10.945Z,98070.00
2022-08-25T17:16:38.677Z,98057.00
2022-08-25T17:19:13.345Z,98064.00
2022-08-25T17:21:45.921Z,98064.00
2022-08-25T17:24:17.134Z,98061.00
2022-08-25T17:26:49.790Z,98065.00
2022-08-25T17:29:19.047Z,98056.00
2022-08-25T17:31:48.439Z,98058.00
2022-08-25T17:34:20.322Z,98063.00
2022-08-25T17:36:52.138Z,98067.00
2022-08-25T17:39:22.332Z,98060.00
2022-08-25T17:41:50.915Z,98061.00
2022-08-25T17:44:19.528Z,98061.00
2022-08-25T17:46:48.034Z,98065.00
2022-08-25T17:49:17.924Z,98063.00
2022-08-25T17:51:46.511Z,98062.00
2022-08-25T17:54:14.540Z,98060.00
2022-08-25T17:56:41.930Z,98064.00
2022-08-25T17:59:10.277Z,98064.00
2022-08-25T18:01:40.830Z,98065.00
2022-08-25T18:04:17.499Z,98064.00
2022-08-25T18:06:48.609Z,98056.00
2022-08-25T18:09:17.869Z,98063.00
2022-08-25T18:11:46.419Z,98063.00
2022-08-25T18:14:16.652Z,98064.00
2022-08-25T18:16:45.133Z,98069.00
2022-08-25T18:19:14.584Z,98071.00
2022-08-25T18:21:43.406Z,98074.00
2022-08-25T18:24:11.777Z,98079.00
2022-08-25T18:26:43.029Z,98085.00
2022-08-25T18:29:13.053Z,98085.00
2022-08-25T18:31:42.336Z,98075.00
2022-08-25T18:34:11.544Z,98087.00
2022-08-25T18:36:39.517Z,98087.00
2022-08-25T18:39:26.042Z,98087.00
2022-08-25T18:41:53.881Z,98095.00
2022-08-25T18:44:21.555Z,98101.00
2022-08-25T18:46:49.117Z,98100.00
2022-08-25T18:49:17.321Z,98094.00
2022-08-25T18:51:47.080Z,98097.00
2022-08-25T18:54:23.017Z,98102.00
2022-08-25T18:56:54.593Z,98105.00
2022-08-25T18:59:23.789Z,98103.00
2022-08-25T19:01:54.021Z,98105.00
2022-08-25T19:04:28.429Z,98102.00
2022-08-25T19:07:01.865Z,98102.00
2022-08-25T19:09:30.723Z,98105.00
2022-08-25T19:11:59.647Z,98106.00
2022-08-25T19:14:27.684Z,98102.00
2022-08-25T19:16:58.755Z,98110.00
2022-08-25T19:19:27.093Z,98110.00
2022-08-25T19:21:54.407Z,98108.00
2022-08-25T19:24:22.412Z,98109.00
2022-08-25T19:26:54.462Z,98112.00
2022-08-25T19:29:24.668Z,98113.00
2022-08-25T19:31:53.258Z,98110.00
2022-08-25T19:34:33.652Z,98116.00
2022-08-25T19:37:05.041Z,98115.00
2022-08-25T19:39:39.170Z,98120.00
2022-08-25T19:42:35.405Z,98125.00
2022-08-25T19:44:58.912Z,98113.00
2022-08-25T19:47:26.253Z,98113.00
2022-08-25T19:52:40.832Z,98128.00
2022-08-25T19:55:10.560Z,98127.00
2022-08-25T19:57:42.728Z,98130.00
2022-08-25T20:00:30.540Z,98127.00
2022-08-25T20:03:00.650Z,98127.00
2022-08-25T20:05:29.795Z,98130.00
2022-08-25T20:07:58.824Z,98130.00
2022-08-25T20:10:39.048Z,98128.00
2022-08-25T20:13:09.871Z,98132.00
2022-08-25T20:15:39.108Z,98130.00
2022-08-25T20:18:06.949Z,98142.00
2022-08-25T20:20:35.583Z,98131.00
2022-08-25T20:23:22.759Z,98129.00
2022-08-25T20:25:50.530Z,98143.00
2022-08-25T20:28:21.600Z,98145.00
2022-08-25T20:30:49.018Z,98144.00
2022-08-25T20:33:20.098Z,98146.00
2022-08-25T20:35:50.717Z,98151.00
2022-08-25T20:38:20.577Z,98151.00
2022-08-25T20:40:48.028Z,98148.00
2022-08-25T20:43:16.237Z,98148.00
2022-08-25T20:45:43.596Z,98143.00
2022-08-25T20:48:10.930Z,98141.00
2022-08-25T20:50:41.501Z,98140.00
2022-08-25T20:53:10.264Z,98144.00
2022-08-25T20:55:43.664Z,98144.00
2022-08-25T20:58:12.669Z,98143.00
2022-08-25T21:00:43.616Z,98149.00
2022-08-25T21:03:11.332Z,98153.00
2022-08-25T21:05:43.723Z,98148.00
2022-08-25T21:08:11.652Z,98146.00
2022-08-25T21:10:39.924Z,98151.00
2022-08-25T21:13:08.044Z,98133.00
2022-08-25T21:15:35.348Z,98151.00
2022-08-25T21:18:04.012Z,98148.00
2022-08-25T21:20:31.511Z,98159.00
2022-08-25T21:22:58.837Z,98154.00
2022-08-25T21:25:26.350Z,98155.00
2022-08-25T21:27:55.618Z,98155.00
2022-08-25T21:30:27.101Z,98159.00
2022-08-25T21:32:55.887Z,98169.00
2022-08-25T21:35:24.033Z,98165.00
2022-08-25T21:37:53.248Z,98157.00
2022-08-25T21:40:23.149Z,98158.00
2022-08-25T21:42:52.419Z,98164.00
2022-08-25T21:45:20.788Z,98163.00
2022-08-25T21:47:49.129Z,98168.00
2022-08-25T21:50:16.514Z,98156.00
2022-08-25T21:52:43.829Z,98158.00
2022-08-25T21:55:15.756Z,98157.00
2022-08-25T21:57:44.303Z,98161.00
2022-08-25T22:00:14.854Z,98155.00
2022-08-25T22:02:45.908Z,98165.00
2022-08-25T22:05:13.631Z,98169.00
2022-08-25T22:07:44.194Z,98161.00
2022-08-25T22:10:17.665Z,98158.00
2022-08-25T22:12:48.418Z,98169.00
2022-08-25T22:15:16.870Z,98161.00
2022-08-25T22:17:48.187Z,98168.00
2022-08-25T22:20:18.467Z,98161.00
2022-08-25T22:22:45.849Z,98166.00
2022-08-25T22:25:13.603Z,98160.00
2022-08-25T22:27:40.972Z,98170.00
2022-08-25T22:30:10.695Z,98152.00
2022-08-25T22:32:39.777Z,98171.00
2022-08-25T22:35:09.466Z,98174.00
2022-08-25T22:37:37.089Z,98170.00
2022-08-25T22:40:05.903Z,98165.00
2022-08-25T22:42:33.284Z,98165.00
2022-08-25T22:45:01.160Z,98156.00
2022-08-25T22:47:28.489Z,98169.00
2022-08-25T22:49:58.558Z,98171.00
2022-08-25T22:52:33.712Z,98177.00
2022-08-25T22:55:03.115Z,98173.00
2022-08-25T22:57:30.589Z,98175.00
2022-08-25T22:59:59.288Z,98174.00
2022-08-25T23:02:28.288Z,98170.00
2022-08-25T23:04:57.899Z,98170.00
2022-08-25T23:07:29.246Z,98160.00
2022-08-25T23:09:59.790Z,98162.00
2022-08-25T23:12:27.132Z,98154.00
2022-08-25T23:14:58.041Z,98165.00
2022-08-25T23:17:25.612Z,98170.00
2022-08-25T23:19:52.966Z,98169.00
2022-08-25T23:22:20.285Z,98166.00
2022-08-25T23:24:53.478Z,98165.00
2022-08-25T23:27:22.177Z,98158.00
2022-08-25T23:29:50.240Z,98165.00
2022-08-25T23:32:18.768Z,98163.00
2022-08-25T23:34:47.109Z,98168.00
2022-08-25T23:37:18.620Z,98158.00
2022-08-25T23:39:49.467Z,98158.00
2022-08-25T23:42:19.898Z,98163.00
2022-08-25T23:44:49.461Z,98164.00
2022-08-25T23:47:18.209Z,98159.00
2022-08-25T23:49:46.105Z,98159.00
2022-08-25T23:52:17.929Z,98156.00
2022-08-25T23:54:47.009Z,98159.00
2022-08-25T23:57:14.900Z,98156.00
2022-08-25T23:59:43.258Z,98154.00
